This is the latest recevied weather packets stored in our database for station/object TA3HRJ-12. If no packets are shown the sender has not sent any weather packets the latest 10 day(s).
| Time | Temp. | Humidity | Pressure | Rain* | Wind** | Luminosity | Snow |
|---|---|---|---|---|---|---|---|
| 1777807500 | 20.56° C | 30% | 1019.2 hPa | - | - | - | - |
| 1777806600 | 19.44° C | 30% | 1019.7 hPa | - | - | - | - |
| 1777805700 | 17.78° C | 32% | 1019.9 hPa | - | - | - | - |
| 1777804800 | 18.89° C | 32% | 1020.3 hPa | - | - | - | - |
| 1777803900 | 18.33° C | 32% | 1020.5 hPa | - | - | - | - |
| 1777803000 | 18.89° C | 31% | 1020.5 hPa | - | - | - | - |
| 1777802100 | 21.11° C | 29% | 1020.5 hPa | - | - | - | - |
| 1777801199 | 20.56° C | 29% | 1020.5 hPa | - | - | - | - |
| 1777800299 | 21.11° C | 29% | 1020.7 hPa | - | - | - | - |
| 1777799399 | 20° C | 29% | 1020.7 hPa | - | - | - | - |
| 1777798499 | 21.67° C | 28% | 1020.8 hPa | - | - | - | - |
| 1777797599 | 21.11° C | 29% | 1021.1 hPa | - | - | - | - |
| 1777796699 | 20° C | 31% | 1021.1 hPa | - | - | - | - |
| 1777795799 | 16.67° C | 34% | 1021.3 hPa | - | - | - | - |
| 1777794899 | 17.22° C | 34% | 1021.3 hPa | - | - | - | - |
| 1777793999 | 16.67° C | 35% | 1021.3 hPa | - | - | - | - |
| 1777793099 | 17.22° C | 34% | 1021.5 hPa | - | - | - | - |
| 1777792199 | 17.78° C | 34% | 1021.6 hPa | - | - | - | - |
| 1777791299 | 17.78° C | 33% | 1021.7 hPa | - | - | - | - |
| 1777790398 | 18.33° C | 34% | 1021.5 hPa | - | - | - | - |
| 1777789498 | 17.78° C | 34% | 1021.5 hPa | - | - | - | - |
| 1777788598 | 16.11° C | 38% | 1021.5 hPa | - | - | - | - |
| 1777787698 | 14.44° C | 40% | 1021.7 hPa | - | - | - | - |
| 1777786798 | 13.33° C | 41% | 1021.8 hPa | - | - | - | - |
| 1777785898 | 12.78° C | 43% | 1021.8 hPa | - | - | - | - |
* Rain since midnight (hover to see other rain measurements)
** Current wind speed in m/s (hover to see current wind gust speed)